METAR AND TAF INFORMATION
METAR FOR MNPC
ADDS - METARS form results

(1525 UTC 20 January 2019)
Data provider http://aviationweather.gov/metar/data/
 
METAR text: MNPC 201500Z 03006KT 7000 HZ BKN016 27/25 Q1015
Conditions at: MNPC (PUERTO CABEZAS( , NI) observed 1500 UTC 20 January 2019
Temperature: 27.0°C (81°F)
Dewpoint: 25.0°C (77°F) [RH = 89%]
Pressure (altimeter): 29.97 inches Hg (1015.0 mb)
Winds: from the NNE (30 degrees) at 7 MPH (6 knots; 3.1 m/s)
Visibility: 4 miles ( 7 km)
Ceiling: 1600 feet AGL
Clouds: broken clouds at 1600 feet AGL
Weather: HZ  (haze)

 AIRPORT MAP

Esri Leaflet Quickstart
 RUNWAY INFORMATION
Runway 09 Runway length 8130 ft Runway width 167 ft
Runway elevation 0 ft Runway displaced threshold 0 ft Runway heading 92
Runway 27 Runway length 8130 ft Runway width 167 ft
Runway elevation 0 ft Runway displaced threshold 0 ft Runway heading 272

 AIRPORT FREQUENCIES
Type TWR Name TWR Frequency 118 MHZ

 AIRPORT NEAR NAVIGATION AIDS
Type VOR-DME Name Puerto Cabezas Frequency 112900 KHZ



Powered by Virtual Airlines Manager [v2.6.2]